sensor_id;sensor_type;location;lat;lon;timestamp;pressure;altitude;pressure_sealevel;temperature;humidity
12775;BME280;6451;42.630;23.382;2023-01-26T00:02:20;94867.44;;;-0.43;100.00
12775;BME280;6451;42.630;23.382;2023-01-26T00:04:47;94880.00;;;-0.28;100.00
12775;BME280;6451;42.630;23.382;2023-01-26T00:07:14;94867.19;;;-0.31;100.00
12775;BME280;6451;42.630;23.382;2023-01-26T00:09:40;94842.63;;;-0.48;100.00
12775;BME280;6451;42.630;23.382;2023-01-26T00:12:07;94869.31;;;-0.33;100.00
12775;BME280;6451;42.630;23.382;2023-01-26T00:14:35;94875.44;;;-0.33;100.00
12775;BME280;6451;42.630;23.382;2023-01-26T00:17:17;94884.28;;;-0.22;100.00
12775;BME280;6451;42.630;23.382;2023-01-26T00:19:55;94880.53;;;-0.21;100.00
12775;BME280;6451;42.630;23.382;2023-01-26T00:22:24;94892.25;;;-0.37;100.00
12775;BME280;6451;42.630;23.382;2023-01-26T00:24:53;94889.59;;;-0.37;100.00
12775;BME280;6451;42.630;23.382;2023-01-26T00:27:20;94892.00;;;-0.31;100.00
12775;BME280;6451;42.630;23.382;2023-01-26T00:29:48;94877.84;;;-0.31;100.00
12775;BME280;6451;42.630;23.382;2023-01-26T00:32:15;94873.63;;;-0.22;100.00
12775;BME280;6451;42.630;23.382;2023-01-26T00:34:42;94849.34;;;-0.31;100.00
12775;BME280;6451;42.630;23.382;2023-01-26T00:37:09;94850.41;;;-0.26;100.00
12775;BME280;6451;42.630;23.382;2023-01-26T00:39:35;94852.25;;;-0.27;100.00
12775;BME280;6451;42.630;23.382;2023-01-26T00:42:02;94848.00;;;-0.38;100.00
12775;BME280;6451;42.630;23.382;2023-01-26T00:44:36;94855.72;;;-0.32;100.00
12775;BME280;6451;42.630;23.382;2023-01-26T00:47:06;94852.81;;;-0.30;100.00
12775;BME280;6451;42.630;23.382;2023-01-26T00:49:33;94843.44;;;-0.33;100.00
12775;BME280;6451;42.630;23.382;2023-01-26T00:52:01;94847.97;;;-0.33;100.00
12775;BME280;6451;42.630;23.382;2023-01-26T00:54:28;94855.72;;;-0.37;100.00
12775;BME280;6451;42.630;23.382;2023-01-26T00:56:56;94835.19;;;-0.41;100.00
12775;BME280;6451;42.630;23.382;2023-01-26T00:59:22;94840.00;;;-0.28;100.00
12775;BME280;6451;42.630;23.382;2023-01-26T01:01:51;94838.94;;;-0.37;100.00
12775;BME280;6451;42.630;23.382;2023-01-26T01:04:19;94799.44;;;-0.56;100.00
12775;BME280;6451;42.630;23.382;2023-01-26T01:06:46;94834.41;;;-0.37;100.00
12775;BME280;6451;42.630;23.382;2023-01-26T01:09:13;94824.53;;;-0.36;100.00
12775;BME280;6451;42.630;23.382;2023-01-26T01:11:40;94813.31;;;-0.59;100.00
12775;BME280;6451;42.630;23.382;2023-01-26T01:14:08;94825.84;;;-0.39;100.00
12775;BME280;6451;42.630;23.382;2023-01-26T01:16:35;94831.19;;;-0.44;100.00
12775;BME280;6451;42.630;23.382;2023-01-26T01:19:02;94796.50;;;-0.64;100.00
12775;BME280;6451;42.630;23.382;2023-01-26T01:21:30;94794.13;;;-0.50;100.00
12775;BME280;6451;42.630;23.382;2023-01-26T01:23:57;94818.13;;;-0.35;100.00
12775;BME280;6451;42.630;23.382;2023-01-26T01:26:24;94818.13;;;-0.40;100.00
12775;BME280;6451;42.630;23.382;2023-01-26T01:28:53;94822.09;;;-0.48;100.00
12775;BME280;6451;42.630;23.382;2023-01-26T01:31:21;94807.97;;;-0.48;100.00
12775;BME280;6451;42.630;23.382;2023-01-26T01:33:48;94811.44;;;-0.48;100.00
12775;BME280;6451;42.630;23.382;2023-01-26T01:36:16;94811.19;;;-0.51;100.00
12775;BME280;6451;42.630;23.382;2023-01-26T01:38:45;94810.91;;;-0.40;100.00
12775;BME280;6451;42.630;23.382;2023-01-26T01:41:14;94815.19;;;-0.44;100.00
12775;BME280;6451;42.630;23.382;2023-01-26T01:43:41;94800.50;;;-0.46;100.00
12775;BME280;6451;42.630;23.382;2023-01-26T01:46:14;94818.94;;;-0.30;100.00
12775;BME280;6451;42.630;23.382;2023-01-26T01:48:48;94756.53;;;-0.74;100.00
12775;BME280;6451;42.630;23.382;2023-01-26T01:51:19;94808.28;;;-0.30;100.00
12775;BME280;6451;42.630;23.382;2023-01-26T01:53:50;94815.72;;;-0.32;100.00
12775;BME280;6451;42.630;23.382;2023-01-26T01:56:20;94801.06;;;-0.44;100.00
12775;BME280;6451;42.630;23.382;2023-01-26T01:58:51;94786.13;;;-0.56;100.00
12775;BME280;6451;42.630;23.382;2023-01-26T02:01:19;94793.59;;;-0.47;100.00
12775;BME280;6451;42.630;23.382;2023-01-26T02:03:50;94795.22;;;-0.36;100.00
12775;BME280;6451;42.630;23.382;2023-01-26T02:06:21;94794.13;;;-0.50;100.00
12775;BME280;6451;42.630;23.382;2023-01-26T02:08:51;94796.78;;;-0.40;100.00
12775;BME280;6451;42.630;23.382;2023-01-26T02:11:22;94794.41;;;-0.42;100.00
12775;BME280;6451;42.630;23.382;2023-01-26T02:13:50;94792.28;;;-0.45;100.00
12775;BME280;6451;42.630;23.382;2023-01-26T02:16:18;94778.13;;;-0.35;100.00
12775;BME280;6451;42.630;23.382;2023-01-26T02:18:45;94786.13;;;-0.35;100.00
12775;BME280;6451;42.630;23.382;2023-01-26T02:21:15;94760.00;;;-0.48;100.00
12775;BME280;6451;42.630;23.382;2023-01-26T02:24:00;94775.19;;;-0.39;100.00
12775;BME280;6451;42.630;23.382;2023-01-26T02:26:32;94769.34;;;-0.36;100.00
12775;BME280;6451;42.630;23.382;2023-01-26T02:29:01;94768.28;;;-0.45;100.00
12775;BME280;6451;42.630;23.382;2023-01-26T02:31:28;94758.94;;;-0.42;100.00
12775;BME280;6451;42.630;23.382;2023-01-26T02:33:57;94762.41;;;-0.42;100.00
12775;BME280;6451;42.630;23.382;2023-01-26T02:36:25;94760.00;;;-0.43;100.00
12775;BME280;6451;42.630;23.382;2023-01-26T02:39:01;94736.56;;;-0.57;100.00
12775;BME280;6451;42.630;23.382;2023-01-26T02:41:31;94744.03;;;-0.53;100.00
12775;BME280;6451;42.630;23.382;2023-01-26T02:44:16;94718.97;;;-0.68;100.00
12775;BME280;6451;42.630;23.382;2023-01-26T02:46:43;94754.66;;;-0.48;100.00
12775;BME280;6451;42.630;23.382;2023-01-26T02:49:10;94746.69;;;-0.48;100.00
12775;BME280;6451;42.630;23.382;2023-01-26T02:51:54;94703.50;;;-0.81;100.00
12775;BME280;6451;42.630;23.382;2023-01-26T02:54:21;94744.28;;;-0.60;100.00
12775;BME280;6451;42.630;23.382;2023-01-26T02:57:09;94729.38;;;-0.46;100.00
12775;BME280;6451;42.630;23.382;2023-01-26T02:59:37;94728.03;;;-0.38;100.00
12775;BME280;6451;42.630;23.382;2023-01-26T03:02:05;94734.97;;;-0.52;100.00
12775;BME280;6451;42.630;23.382;2023-01-26T03:04:33;94732.31;;;-0.52;100.00
12775;BME280;6451;42.630;23.382;2023-01-26T03:07:00;94721.09;;;-0.49;100.00
12775;BME280;6451;42.630;23.382;2023-01-26T03:09:27;94727.47;;;-0.40;100.00
12775;BME280;6451;42.630;23.382;2023-01-26T03:11:54;94728.03;;;-0.38;100.00
12775;BME280;6451;42.630;23.382;2023-01-26T03:14:22;94684.31;;;-0.47;100.00
12775;BME280;6451;42.630;23.382;2023-01-26T03:16:50;94714.97;;;-0.45;100.00
12775;BME280;6451;42.630;23.382;2023-01-26T03:19:18;94700.03;;;-0.56;100.00
12775;BME280;6451;42.630;23.382;2023-01-26T03:22:02;94703.25;;;-0.59;100.00
12775;BME280;6451;42.630;23.382;2023-01-26T03:24:46;94695.50;;;-0.56;100.00
12775;BME280;6451;42.630;23.382;2023-01-26T03:27:37;94690.44;;;-0.57;100.00
12775;BME280;6451;42.630;23.382;2023-01-26T03:30:08;94686.19;;;-0.53;100.00
12775;BME280;6451;42.630;23.382;2023-01-26T03:32:35;94692.06;;;-0.61;100.00
12775;BME280;6451;42.630;23.382;2023-01-26T03:35:02;94683.25;;;-0.51;100.00
12775;BME280;6451;42.630;23.382;2023-01-26T03:37:29;94685.66;;;-0.60;100.00
12775;BME280;6451;42.630;23.382;2023-01-26T03:40:01;94690.19;;;-0.66;100.00
12775;BME280;6451;42.630;23.382;2023-01-26T03:42:47;94674.47;;;-0.72;100.00
12775;BME280;6451;42.630;23.382;2023-01-26T03:45:33;94685.13;;;-0.57;100.00
12775;BME280;6451;42.630;23.382;2023-01-26T03:48:17;94680.56;;;-0.46;100.00
12775;BME280;6451;42.630;23.382;2023-01-26T03:51:02;94663.53;;;-0.50;100.00
12775;BME280;6451;42.630;23.382;2023-01-26T03:53:46;94677.91;;;-0.41;100.00
12775;BME280;6451;42.630;23.382;2023-01-26T03:56:32;94661.38;;;-0.48;100.00
12775;BME280;6451;42.630;23.382;2023-01-26T03:59:01;94657.91;;;-0.54;100.00
12775;BME280;6451;42.630;23.382;2023-01-26T04:01:35;94635.84;;;-0.75;100.00
12775;BME280;6451;42.630;23.382;2023-01-26T04:04:03;94654.50;;;-0.60;100.00
12775;BME280;6451;42.630;23.382;2023-01-26T04:06:48;94647.25;;;-0.49;100.00
12775;BME280;6451;42.630;23.382;2023-01-26T04:09:33;94658.19;;;-0.50;100.00
12775;BME280;6451;42.630;23.382;2023-01-26T04:12:01;94657.66;;;-0.42;100.00
12775;BME280;6451;42.630;23.382;2023-01-26T04:14:28;94652.31;;;-0.37;100.00
12775;BME280;6451;42.630;23.382;2023-01-26T04:17:14;94643.81;;;-0.49;100.00
12775;BME280;6451;42.630;23.382;2023-01-26T04:19:58;94634.75;;;-0.53;100.00
12775;BME280;6451;42.630;23.382;2023-01-26T04:22:45;94633.41;;;-0.56;100.00
12775;BME280;6451;42.630;23.382;2023-01-26T04:25:16;94614.75;;;-0.56;100.00
12775;BME280;6451;42.630;23.382;2023-01-26T04:27:44;94629.94;;;-0.46;100.00
12775;BME280;6451;42.630;23.382;2023-01-26T04:30:12;94631.00;;;-0.42;100.00
12775;BME280;6451;42.630;23.382;2023-01-26T04:32:41;94631.00;;;-0.47;100.00
12775;BME280;6451;42.630;23.382;2023-01-26T04:35:08;94612.38;;;-0.58;100.00
12775;BME280;6451;42.630;23.382;2023-01-26T04:37:36;94616.09;;;-0.59;100.00
12775;BME280;6451;42.630;23.382;2023-01-26T04:40:04;94599.88;;;-0.67;100.00
12775;BME280;6451;42.630;23.382;2023-01-26T04:42:31;94622.47;;;-0.54;100.00
12775;BME280;6451;42.630;23.382;2023-01-26T04:44:59;94609.47;;;-0.61;100.00
12775;BME280;6451;42.630;23.382;2023-01-26T04:47:28;94615.03;;;-0.58;100.00
12775;BME280;6451;42.630;23.382;2023-01-26T04:49:57;94608.91;;;-0.63;100.00
12775;BME280;6451;42.630;23.382;2023-01-26T04:52:24;94623.56;;;-0.50;100.00
12775;BME280;6451;42.630;23.382;2023-01-26T04:54:50;94624.63;;;-0.57;100.00
12775;BME280;6451;42.630;23.382;2023-01-26T04:57:17;94627.28;;;-0.57;100.00
12775;BME280;6451;42.630;23.382;2023-01-26T04:59:45;94613.41;;;-0.48;100.00
12775;BME280;6451;42.630;23.382;2023-01-26T05:02:13;94606.53;;;-0.60;100.00
12775;BME280;6451;42.630;23.382;2023-01-26T05:04:41;94630.72;;;-0.41;100.00
12775;BME280;6451;42.630;23.382;2023-01-26T05:07:09;94628.84;;;-0.35;100.00
12775;BME280;6451;42.630;23.382;2023-01-26T05:09:36;94632.59;;;-0.36;100.00
12775;BME280;6451;42.630;23.382;2023-01-26T05:12:03;94612.34;;;-0.42;100.00
12775;BME280;6451;42.630;23.382;2023-01-26T05:14:44;94628.84;;;-0.40;100.00
12775;BME280;6451;42.630;23.382;2023-01-26T05:17:13;94626.47;;;-0.37;100.00
12775;BME280;6451;42.630;23.382;2023-01-26T05:19:41;94612.84;;;-0.40;100.00
12775;BME280;6451;42.630;23.382;2023-01-26T05:22:07;94555.66;;;-0.68;100.00
12775;BME280;6451;42.630;23.382;2023-01-26T05:24:37;94614.13;;;-0.17;100.00
12775;BME280;6451;42.630;23.382;2023-01-26T05:27:03;94607.75;;;-0.26;100.00
12775;BME280;6451;42.630;23.382;2023-01-26T05:29:49;94605.38;;;-0.23;100.00
12775;BME280;6451;42.630;23.382;2023-01-26T05:32:17;94591.25;;;-0.29;100.00
12775;BME280;6451;42.630;23.382;2023-01-26T05:34:44;94604.81;;;-0.15;100.00
12775;BME280;6451;42.630;23.382;2023-01-26T05:37:11;94584.09;;;-0.38;100.00
12775;BME280;6451;42.630;23.382;2023-01-26T05:39:40;94606.69;;;-0.20;100.00
12775;BME280;6451;42.630;23.382;2023-01-26T05:42:08;94558.00;;;-0.62;100.00
12775;BME280;6451;42.630;23.382;2023-01-26T05:44:36;94602.16;;;-0.25;100.00
12775;BME280;6451;42.630;23.382;2023-01-26T05:47:02;94613.38;;;-0.28;100.00
12775;BME280;6451;42.630;23.382;2023-01-26T05:49:30;94596.81;;;-0.25;100.00
12775;BME280;6451;42.630;23.382;2023-01-26T05:51:57;94606.91;;;-0.07;100.00
12775;BME280;6451;42.630;23.382;2023-01-26T05:54:24;94614.91;;;-0.12;100.00
12775;BME280;6451;42.630;23.382;2023-01-26T05:56:54;94607.19;;;-0.18;100.00
12775;BME280;6451;42.630;23.382;2023-01-26T05:59:22;94595.72;;;-0.14;100.00
12775;BME280;6451;42.630;23.382;2023-01-26T06:01:48;94598.56;;;0.05;100.00
12775;BME280;6451;42.630;23.382;2023-01-26T06:04:15;94504.75;;;-0.67;100.00
12775;BME280;6451;42.630;23.382;2023-01-26T06:06:42;94601.00;;;-0.04;100.00
12775;BME280;6451;42.630;23.382;2023-01-26T06:09:09;94598.34;;;-0.09;100.00
12775;BME280;6451;42.630;23.382;2023-01-26T06:11:36;94600.50;;;-0.06;100.00
12775;BME280;6451;42.630;23.382;2023-01-26T06:14:04;94572.81;;;-0.20;100.00
12775;BME280;6451;42.630;23.382;2023-01-26T06:16:31;94603.44;;;-0.07;100.00
12775;BME280;6451;42.630;23.382;2023-01-26T06:18:58;94594.88;;;-0.09;100.00
12775;BME280;6451;42.630;23.382;2023-01-26T06:21:24;94588.22;;;-0.07;100.00
12775;BME280;6451;42.630;23.382;2023-01-26T06:23:51;94582.63;;;-0.05;100.00
12775;BME280;6451;42.630;23.382;2023-01-26T06:26:18;94596.97;;;0.04;100.00
12775;BME280;6451;42.630;23.382;2023-01-26T06:28:45;94593.22;;;0.10;100.00
12775;BME280;6451;42.630;23.382;2023-01-26T06:31:13;94583.88;;;0.08;100.00
12775;BME280;6451;42.630;23.382;2023-01-26T06:33:40;94573.03;;;-0.06;100.00
12775;BME280;6451;42.630;23.382;2023-01-26T06:36:09;94573.75;;;0.10;100.00
12775;BME280;6451;42.630;23.382;2023-01-26T06:38:37;94584.72;;;0.03;100.00
12775;BME280;6451;42.630;23.382;2023-01-26T06:41:06;94579.13;;;-0.01;100.00
12775;BME280;6451;42.630;23.382;2023-01-26T06:43:34;94584.72;;;0.03;100.00
12775;BME280;6451;42.630;23.382;2023-01-26T06:46:02;94571.44;;;-0.12;100.00
12775;BME280;6451;42.630;23.382;2023-01-26T06:48:33;94583.13;;;0.02;100.00
12775;BME280;6451;42.630;23.382;2023-01-26T06:51:04;94562.09;;;-0.10;100.00
12775;BME280;6451;42.630;23.382;2023-01-26T06:53:33;94583.91;;;0.03;100.00
12775;BME280;6451;42.630;23.382;2023-01-26T06:56:01;94580.97;;;0.04;100.00
12775;BME280;6451;42.630;23.382;2023-01-26T06:58:28;94566.06;;;-0.02;100.00
12775;BME280;6451;42.630;23.382;2023-01-26T07:00:55;94574.28;;;0.12;100.00
12775;BME280;6451;42.630;23.382;2023-01-26T07:03:22;94565.53;;;0.01;100.00
12775;BME280;6451;42.630;23.382;2023-01-26T07:05:51;94579.03;;;0.15;100.00
12775;BME280;6451;42.630;23.382;2023-01-26T07:08:18;94578.25;;;0.14;100.00
12775;BME280;6451;42.630;23.382;2023-01-26T07:10:45;94556.91;;;0.14;100.00
12775;BME280;6451;42.630;23.382;2023-01-26T07:13:18;94563.22;;;0.28;100.00
12775;BME280;6451;42.630;23.382;2023-01-26T07:15:47;94532.47;;;-0.03;100.00
12775;BME280;6451;42.630;23.382;2023-01-26T07:18:14;94563.78;;;0.25;100.00
12775;BME280;6451;42.630;23.382;2023-01-26T07:20:41;94552.13;;;0.11;100.00
12775;BME280;6451;42.630;23.382;2023-01-26T07:23:09;94558.75;;;0.19;100.00
12775;BME280;6451;42.630;23.382;2023-01-26T07:25:36;94553.34;;;0.29;100.00
12775;BME280;6451;42.630;23.382;2023-01-26T07:28:03;94537.66;;;0.22;100.00
12775;BME280;6451;42.630;23.382;2023-01-26T07:30:34;94552.53;;;0.34;100.00
12775;BME280;6451;42.630;23.382;2023-01-26T07:33:01;94564.78;;;0.40;100.00
12775;BME280;6451;42.630;23.382;2023-01-26T07:35:28;94537.69;;;0.17;100.00
12775;BME280;6451;42.630;23.382;2023-01-26T07:37:55;94549.88;;;0.34;100.00
12775;BME280;6451;42.630;23.382;2023-01-26T07:40:24;94518.16;;;0.22;100.00
12775;BME280;6451;42.630;23.382;2023-01-26T07:42:51;94539.41;;;0.37;100.00
12775;BME280;6451;42.630;23.382;2023-01-26T07:45:21;94512.28;;;0.25;100.00
12775;BME280;6451;42.630;23.382;2023-01-26T07:47:48;94537.53;;;0.38;100.00
12775;BME280;6451;42.630;23.382;2023-01-26T07:50:15;94549.03;;;0.38;100.00
12775;BME280;6451;42.630;23.382;2023-01-26T07:52:42;94545.22;;;0.49;100.00
12775;BME280;6451;42.630;23.382;2023-01-26T07:55:09;94536.13;;;0.50;100.00
12775;BME280;6451;42.630;23.382;2023-01-26T07:57:38;94539.00;;;0.59;100.00
12775;BME280;6451;42.630;23.382;2023-01-26T08:00:06;94545.63;;;0.67;100.00
12775;BME280;6451;42.630;23.382;2023-01-26T08:02:33;94545.91;;;0.65;100.00
12775;BME280;6451;42.630;23.382;2023-01-26T08:05:00;94536.06;;;0.61;100.00
12775;BME280;6451;42.630;23.382;2023-01-26T08:07:27;94539.28;;;0.58;100.00
12775;BME280;6451;42.630;23.382;2023-01-26T08:09:54;94533.94;;;0.63;100.00
12775;BME280;6451;42.630;23.382;2023-01-26T08:12:23;94502.22;;;0.51;100.00
12775;BME280;6451;42.630;23.382;2023-01-26T08:14:52;94515.09;;;0.78;100.00
12775;BME280;6451;42.630;23.382;2023-01-26T08:17:18;94516.53;;;0.65;100.00
12775;BME280;6451;42.630;23.382;2023-01-26T08:19:46;94509.03;;;0.67;100.00
12775;BME280;6451;42.630;23.382;2023-01-26T08:22:12;94525.34;;;0.66;100.00
12775;BME280;6451;42.630;23.382;2023-01-26T08:24:39;94450.03;;;0.35;100.00
12775;BME280;6451;42.630;23.382;2023-01-26T08:27:06;94523.34;;;0.81;100.00
12775;BME280;6451;42.630;23.382;2023-01-26T08:29:33;94515.38;;;0.76;100.00
12775;BME280;6451;42.630;23.382;2023-01-26T08:32:01;94514.50;;;0.86;100.00
12775;BME280;6451;42.630;23.382;2023-01-26T08:34:28;94505.25;;;1.02;100.00
12775;BME280;6451;42.630;23.382;2023-01-26T08:36:56;94498.91;;;0.69;100.00
12775;BME280;6451;42.630;23.382;2023-01-26T08:39:23;94502.47;;;0.83;100.00
12775;BME280;6451;42.630;23.382;2023-01-26T08:41:50;94495.94;;;0.71;100.00
12775;BME280;6451;42.630;23.382;2023-01-26T08:44:16;94501.19;;;0.81;100.00
12775;BME280;6451;42.630;23.382;2023-01-26T08:46:43;94493.50;;;0.74;100.00
12775;BME280;6451;42.630;23.382;2023-01-26T08:49:12;94485.88;;;0.63;100.00
12775;BME280;6451;42.630;23.382;2023-01-26T08:51:38;94510.50;;;0.83;100.00
12775;BME280;6451;42.630;23.382;2023-01-26T08:54:06;94491.09;;;0.73;100.00
12775;BME280;6451;42.630;23.382;2023-01-26T08:56:33;94502.84;;;0.77;100.00
12775;BME280;6451;42.630;23.382;2023-01-26T08:59:00;94506.84;;;0.74;100.00
12775;BME280;6451;42.630;23.382;2023-01-26T09:01:27;94512.13;;;0.85;100.00
12775;BME280;6451;42.630;23.382;2023-01-26T09:03:54;94494.72;;;0.87;100.00
12775;BME280;6451;42.630;23.382;2023-01-26T09:06:22;94499.16;;;0.97;100.00
12775;BME280;6451;42.630;23.382;2023-01-26T09:08:49;94507.22;;;0.92;100.00
12775;BME280;6451;42.630;23.382;2023-01-26T09:11:16;94491.53;;;0.85;100.00
12775;BME280;6451;42.630;23.382;2023-01-26T09:13:43;94492.53;;;0.94;100.00
12775;BME280;6451;42.630;23.382;2023-01-26T09:16:14;94488.19;;;0.98;100.00
12775;BME280;6451;42.630;23.382;2023-01-26T09:18:42;94494.13;;;0.95;100.00
12775;BME280;6451;42.630;23.382;2023-01-26T09:21:09;94464.63;;;0.76;100.00
12775;BME280;6451;42.630;23.382;2023-01-26T09:23:39;94474.03;;;0.98;100.00
12775;BME280;6451;42.630;23.382;2023-01-26T09:26:06;94487.94;;;1.00;100.00
12775;BME280;6451;42.630;23.382;2023-01-26T09:28:32;94465.88;;;0.84;100.00
12775;BME280;6451;42.630;23.382;2023-01-26T09:31:02;94473.66;;;1.09;100.00
12775;BME280;6451;42.630;23.382;2023-01-26T09:33:30;94452.13;;;1.01;100.00
12775;BME280;6451;42.630;23.382;2023-01-26T09:36:02;94462.47;;;1.07;100.00
12775;BME280;6451;42.630;23.382;2023-01-26T09:38:29;94458.81;;;0.98;100.00
12775;BME280;6451;42.630;23.382;2023-01-26T09:41:04;94464.44;;;0.97;100.00
12775;BME280;6451;42.630;23.382;2023-01-26T09:43:37;94473.75;;;0.99;100.00
12775;BME280;6451;42.630;23.382;2023-01-26T09:46:18;94469.13;;;1.10;100.00
12775;BME280;6451;42.630;23.382;2023-01-26T09:48:54;94456.94;;;0.99;100.00
12775;BME280;6451;42.630;23.382;2023-01-26T09:51:28;94463.66;;;1.20;100.00
12775;BME280;6451;42.630;23.382;2023-01-26T09:54:00;94455.34;;;1.22;100.00
12775;BME280;6451;42.630;23.382;2023-01-26T09:56:31;94441.19;;;1.21;100.00
12775;BME280;6451;42.630;23.382;2023-01-26T09:59:03;94420.22;;;1.09;100.00
12775;BME280;6451;42.630;23.382;2023-01-26T10:01:37;94447.78;;;1.29;100.00
12775;BME280;6451;42.630;23.382;2023-01-26T10:04:13;94445.53;;;1.41;100.00
12775;BME280;6451;42.630;23.382;2023-01-26T10:06:45;94431.75;;;1.29;100.00
12775;BME280;6451;42.630;23.382;2023-01-26T10:09:15;94446.34;;;1.36;100.00
12775;BME280;6451;42.630;23.382;2023-01-26T10:11:46;94436.25;;;1.33;100.00
12775;BME280;6451;42.630;23.382;2023-01-26T10:14:17;94444.94;;;1.44;100.00
12775;BME280;6451;42.630;23.382;2023-01-26T10:16:47;94434.47;;;1.48;100.00
12775;BME280;6451;42.630;23.382;2023-01-26T10:19:19;94427.16;;;1.34;100.00
12775;BME280;6451;42.630;23.382;2023-01-26T10:21:49;94412.41;;;1.37;100.00
12775;BME280;6451;42.630;23.382;2023-01-26T10:24:20;94410.25;;;1.39;100.00
12775;BME280;6451;42.630;23.382;2023-01-26T10:26:52;94399.13;;;1.32;100.00
12775;BME280;6451;42.630;23.382;2023-01-26T10:29:19;94379.63;;;1.31;100.00
12775;BME280;6451;42.630;23.382;2023-01-26T10:31:46;94375.72;;;1.24;100.00
12775;BME280;6451;42.630;23.382;2023-01-26T10:34:15;94096.38;;;-0.48;100.00
12775;BME280;6451;42.630;23.382;2023-01-26T10:36:44;94381.34;;;1.41;100.00
12775;BME280;6451;42.630;23.382;2023-01-26T10:39:12;94361.34;;;1.38;100.00
12775;BME280;6451;42.630;23.382;2023-01-26T10:41:40;94372.63;;;1.54;100.00
12775;BME280;6451;42.630;23.382;2023-01-26T10:44:22;94361.66;;;1.56;100.00
12775;BME280;6451;42.630;23.382;2023-01-26T10:47:03;94351.28;;;1.68;100.00
12775;BME280;6451;42.630;23.382;2023-01-26T10:49:30;94338.44;;;1.51;100.00
12775;BME280;6451;42.630;23.382;2023-01-26T10:52:10;94316.25;;;1.51;100.00
12775;BME280;6451;42.630;23.382;2023-01-26T10:54:40;94327.88;;;1.79;100.00
12775;BME280;6451;42.630;23.382;2023-01-26T10:57:23;94320.28;;;1.86;100.00
12775;BME280;6451;42.630;23.382;2023-01-26T10:59:55;94316.34;;;1.97;100.00
12775;BME280;6451;42.630;23.382;2023-01-26T11:02:26;94304.84;;;1.97;100.00
12775;BME280;6451;42.630;23.382;2023-01-26T11:05:19;94310.06;;;1.88;100.00
12775;BME280;6451;42.630;23.382;2023-01-26T11:07:47;94232.69;;;1.26;100.00
12775;BME280;6451;42.630;23.382;2023-01-26T11:10:17;94024.16;;;0.15;100.00
12775;BME280;6451;42.630;23.382;2023-01-26T11:12:44;94305.06;;;2.00;100.00
12775;BME280;6451;42.630;23.382;2023-01-26T11:15:17;94278.47;;;1.90;100.00
12775;BME280;6451;42.630;23.382;2023-01-26T11:17:50;94279.56;;;1.89;100.00
12775;BME280;6451;42.630;23.382;2023-01-26T11:20:37;94291.41;;;1.83;100.00
12775;BME280;6451;42.630;23.382;2023-01-26T11:23:13;94258.63;;;1.77;100.00
12775;BME280;6451;42.630;23.382;2023-01-26T11:25:59;94274.81;;;1.86;100.00
12775;BME280;6451;42.630;23.382;2023-01-26T11:28:37;94267.28;;;1.88;100.00
12775;BME280;6451;42.630;23.382;2023-01-26T11:31:17;94252.31;;;1.87;100.00
12775;BME280;6451;42.630;23.382;2023-01-26T11:33:56;94248.78;;;2.05;100.00
12775;BME280;6451;42.630;23.382;2023-01-26T11:36:33;94162.19;;;1.55;100.00
12775;BME280;6451;42.630;23.382;2023-01-26T11:39:11;94258.50;;;2.01;100.00
12775;BME280;6451;42.630;23.382;2023-01-26T11:41:49;94227.47;;;2.14;100.00
12775;BME280;6451;42.630;23.382;2023-01-26T11:44:48;94234.06;;;1.89;100.00
12775;BME280;6451;42.630;23.382;2023-01-26T11:47:29;94237.16;;;1.96;100.00
12775;BME280;6451;42.630;23.382;2023-01-26T11:50:15;94234.16;;;1.84;100.00
12775;BME280;6451;42.630;23.382;2023-01-26T11:52:50;94240.09;;;1.81;100.00
12775;BME280;6451;42.630;23.382;2023-01-26T11:55:31;94216.59;;;1.64;100.00
12775;BME280;6451;42.630;23.382;2023-01-26T11:58:16;94250.63;;;1.91;100.00
12775;BME280;6451;42.630;23.382;2023-01-26T12:00:49;94249.81;;;1.90;100.00
12775;BME280;6451;42.630;23.382;2023-01-26T12:03:23;94236.56;;;1.85;100.00
12775;BME280;6451;42.630;23.382;2023-01-26T12:05:53;94227.94;;;1.88;100.00
12775;BME280;6451;42.630;23.382;2023-01-26T12:08:24;94229.88;;;1.83;100.00
12775;BME280;6451;42.630;23.382;2023-01-26T12:10:59;94227.22;;;1.83;100.00
12775;BME280;6451;42.630;23.382;2023-01-26T12:13:51;94189.19;;;1.53;100.00
12775;BME280;6451;42.630;23.382;2023-01-26T12:16:30;94223.84;;;1.77;100.00
12775;BME280;6451;42.630;23.382;2023-01-26T12:19:09;94211.69;;;1.85;100.00
12775;BME280;6451;42.630;23.382;2023-01-26T12:21:41;94143.63;;;1.31;100.00
12775;BME280;6451;42.630;23.382;2023-01-26T12:24:13;94197.97;;;1.73;100.00
12775;BME280;6451;42.630;23.382;2023-01-26T12:26:48;94199.56;;;1.74;100.00
12775;BME280;6451;42.630;23.382;2023-01-26T12:29:21;94198.06;;;1.67;100.00
12775;BME280;6451;42.630;23.382;2023-01-26T12:31:57;94196.59;;;1.75;100.00
12775;BME280;6451;42.630;23.382;2023-01-26T12:34:29;94188.78;;;1.79;100.00
12775;BME280;6451;42.630;23.382;2023-01-26T12:37:10;94168.63;;;1.67;100.00
12775;BME280;6451;42.630;23.382;2023-01-26T12:39:50;94169.25;;;1.64;100.00
12775;BME280;6451;42.630;23.382;2023-01-26T12:42:25;94143.63;;;1.45;100.00
12775;BME280;6451;42.630;23.382;2023-01-26T12:44:57;93917.28;;;-0.08;100.00
12775;BME280;6451;42.630;23.382;2023-01-26T12:47:31;94162.59;;;1.62;100.00
12775;BME280;6451;42.630;23.382;2023-01-26T12:50:03;94151.28;;;1.51;100.00
12775;BME280;6451;42.630;23.382;2023-01-26T12:52:37;94135.22;;;1.51;100.00
12775;BME280;6451;42.630;23.382;2023-01-26T12:55:13;94103.34;;;1.41;100.00
12775;BME280;6451;42.630;23.382;2023-01-26T12:57:43;94168.94;;;1.66;100.00
12775;BME280;6451;42.630;23.382;2023-01-26T13:00:19;94169.31;;;1.59;100.00
12775;BME280;6451;42.630;23.382;2023-01-26T13:02:48;94170.31;;;1.63;100.00
12775;BME280;6451;42.630;23.382;2023-01-26T13:05:26;94149.09;;;1.53;100.00
12775;BME280;6451;42.630;23.382;2023-01-26T13:07:54;94167.31;;;1.51;100.00
12775;BME280;6451;42.630;23.382;2023-01-26T13:10:42;94162.97;;;1.55;100.00
12775;BME280;6451;42.630;23.382;2023-01-26T13:13:28;94166.97;;;1.72;100.00
12775;BME280;6451;42.630;23.382;2023-01-26T13:16:33;94166.44;;;1.56;100.00